sensor_id;sensor_type;location;lat;lon;timestamp;pressure;altitude;pressure_sealevel;temperature;humidity
72959;BME280;60008;50.826;6.896;2023-08-06T00:00:07;99945.53;;;14.82;100.00
72959;BME280;60008;50.826;6.896;2023-08-06T00:03:05;99938.56;;;14.81;100.00
72959;BME280;60008;50.826;6.896;2023-08-06T00:06:07;99930.34;;;14.76;100.00
72959;BME280;60008;50.826;6.896;2023-08-06T00:08:58;99929.97;;;14.73;100.00
72959;BME280;60008;50.826;6.896;2023-08-06T00:11:43;99939.63;;;14.67;100.00
72959;BME280;60008;50.826;6.896;2023-08-06T00:14:35;99933.25;;;14.68;100.00
72959;BME280;60008;50.826;6.896;2023-08-06T00:17:27;99937.56;;;14.63;100.00
72959;BME280;60008;50.826;6.896;2023-08-06T00:20:12;99941.88;;;14.64;100.00
72959;BME280;60008;50.826;6.896;2023-08-06T00:23:04;99945.16;;;14.66;100.00
72959;BME280;60008;50.826;6.896;2023-08-06T00:25:49;99939.19;;;14.70;100.00
72959;BME280;60008;50.826;6.896;2023-08-06T00:28:41;99938.56;;;14.68;100.00
72959;BME280;60008;50.826;6.896;2023-08-06T00:31:26;99948.03;;;14.64;100.00
72959;BME280;60008;50.826;6.896;2023-08-06T00:34:18;99945.16;;;14.59;100.00
72959;BME280;60008;50.826;6.896;2023-08-06T00:37:03;99939.84;;;14.59;100.00
72959;BME280;60008;50.826;6.896;2023-08-06T00:39:55;99947.19;;;14.70;100.00
72959;BME280;60008;50.826;6.896;2023-08-06T00:42:40;99943.31;;;14.73;100.00
72959;BME280;60008;50.826;6.896;2023-08-06T00:45:36;99938.16;;;14.78;100.00
72959;BME280;60008;50.826;6.896;2023-08-06T00:48:21;99941.03;;;14.83;100.00
72959;BME280;60008;50.826;6.896;2023-08-06T00:51:14;99929.31;;;14.84;100.00
72959;BME280;60008;50.826;6.896;2023-08-06T00:53:59;99927.66;;;14.96;100.00
72959;BME280;60008;50.826;6.896;2023-08-06T00:56:51;99928.88;;;15.00;100.00
72959;BME280;60008;50.826;6.896;2023-08-06T00:59:38;99916.78;;;14.98;100.00
72959;BME280;60008;50.826;6.896;2023-08-06T01:02:36;99923.75;;;14.99;100.00
72959;BME280;60008;50.826;6.896;2023-08-06T01:05:35;99925.00;;;15.03;100.00
72959;BME280;60008;50.826;6.896;2023-08-06T01:08:54;99925.19;;;15.01;100.00
72959;BME280;60008;50.826;6.896;2023-08-06T01:15:10;99903.84;;;15.01;100.00
72959;BME280;60008;50.826;6.896;2023-08-06T01:18:02;99912.84;;;15.00;100.00
72959;BME280;60008;50.826;6.896;2023-08-06T01:20:48;99911.44;;;14.98;100.00
72959;BME280;60008;50.826;6.896;2023-08-06T01:23:42;99908.16;;;14.96;100.00
72959;BME280;60008;50.826;6.896;2023-08-06T01:26:33;99905.09;;;14.92;100.00
72959;BME280;60008;50.826;6.896;2023-08-06T01:29:31;99901.44;;;14.80;100.00
72959;BME280;60008;50.826;6.896;2023-08-06T01:32:20;99903.88;;;14.81;100.00
72959;BME280;60008;50.826;6.896;2023-08-06T01:35:15;99908.41;;;14.74;100.00
72959;BME280;60008;50.826;6.896;2023-08-06T01:38:02;99902.66;;;14.77;100.00
72959;BME280;60008;50.826;6.896;2023-08-06T01:40:53;99908.59;;;14.79;100.00
72959;BME280;60008;50.826;6.896;2023-08-06T01:43:45;99903.09;;;14.81;100.00
72959;BME280;60008;50.826;6.896;2023-08-06T01:46:37;99899.59;;;14.80;100.00
72959;BME280;60008;50.826;6.896;2023-08-06T01:49:22;99896.91;;;14.74;100.00
72959;BME280;60008;50.826;6.896;2023-08-06T01:52:13;99887.25;;;14.79;100.00
72959;BME280;60008;50.826;6.896;2023-08-06T01:55:04;99892.19;;;14.76;100.00
72959;BME280;60008;50.826;6.896;2023-08-06T01:57:49;99884.38;;;14.87;100.00
72959;BME280;60008;50.826;6.896;2023-08-06T02:00:41;99880.28;;;14.85;100.00
72959;BME280;60008;50.826;6.896;2023-08-06T02:03:32;99876.59;;;14.79;100.00
72959;BME280;60008;50.826;6.896;2023-08-06T02:06:24;99876.38;;;14.87;100.00
72959;BME280;60008;50.826;6.896;2023-08-06T02:09:09;99871.63;;;14.89;100.00
72959;BME280;60008;50.826;6.896;2023-08-06T02:12:01;99865.69;;;14.94;100.00
72959;BME280;60008;50.826;6.896;2023-08-06T02:14:46;99865.88;;;14.99;100.00
72959;BME280;60008;50.826;6.896;2023-08-06T02:17:37;99852.72;;;15.04;100.00
72959;BME280;60008;50.826;6.896;2023-08-06T02:20:28;99859.28;;;15.02;100.00
72959;BME280;60008;50.826;6.896;2023-08-06T02:23:13;99857.03;;;15.05;100.00
72959;BME280;60008;50.826;6.896;2023-08-06T02:26:04;99860.50;;;15.06;100.00
72959;BME280;60008;50.826;6.896;2023-08-06T02:28:56;99854.97;;;15.07;100.00
72959;BME280;60008;50.826;6.896;2023-08-06T02:31:41;99859.69;;;15.05;100.00
72959;BME280;60008;50.826;6.896;2023-08-06T02:34:33;99849.63;;;15.07;100.00
72959;BME280;60008;50.826;6.896;2023-08-06T02:37:18;99849.63;;;15.01;100.00
72959;BME280;60008;50.826;6.896;2023-08-06T02:40:10;99856.63;;;15.08;100.00
72959;BME280;60008;50.826;6.896;2023-08-06T02:42:55;99848.41;;;15.03;100.00
72959;BME280;60008;50.826;6.896;2023-08-06T02:45:47;99850.03;;;15.04;100.00
72959;BME280;60008;50.826;6.896;2023-08-06T02:48:33;99848.38;;;15.10;100.00
72959;BME280;60008;50.826;6.896;2023-08-06T02:51:24;99840.38;;;15.03;100.00
72959;BME280;60008;50.826;6.896;2023-08-06T02:54:09;99827.44;;;15.07;100.00
72959;BME280;60008;50.826;6.896;2023-08-06T02:57:00;99831.72;;;15.14;100.00
72959;BME280;60008;50.826;6.896;2023-08-06T02:59:45;99839.78;;;15.08;100.00
72959;BME280;60008;50.826;6.896;2023-08-06T03:02:37;99833.53;;;15.20;100.00
72959;BME280;60008;50.826;6.896;2023-08-06T03:05:29;99827.78;;;15.23;100.00
72959;BME280;60008;50.826;6.896;2023-08-06T03:08:20;99820.81;;;15.22;100.00
72959;BME280;60008;50.826;6.896;2023-08-06T03:11:07;99817.84;;;14.99;100.00
72959;BME280;60008;50.826;6.896;2023-08-06T03:13:58;99832.59;;;15.08;100.00
72959;BME280;60008;50.826;6.896;2023-08-06T03:16:43;99825.38;;;15.15;100.00
72959;BME280;60008;50.826;6.896;2023-08-06T03:19:35;99825.34;;;15.22;100.00
72959;BME280;60008;50.826;6.896;2023-08-06T03:22:26;99817.88;;;15.30;100.00
72959;BME280;60008;50.826;6.896;2023-08-06T03:25:11;99824.91;;;15.25;100.00
72959;BME280;60008;50.826;6.896;2023-08-06T03:28:03;99818.63;;;15.06;100.00
72959;BME280;60008;50.826;6.896;2023-08-06T03:30:58;99815.94;;;15.13;100.00
72959;BME280;60008;50.826;6.896;2023-08-06T03:33:50;99813.09;;;15.01;100.00
72959;BME280;60008;50.826;6.896;2023-08-06T03:36:35;99812.25;;;15.07;100.00
72959;BME280;60008;50.826;6.896;2023-08-06T03:39:27;99813.28;;;15.06;100.00
72959;BME280;60008;50.826;6.896;2023-08-06T03:42:12;99810.00;;;15.11;100.00
72959;BME280;60008;50.826;6.896;2023-08-06T03:45:03;99810.13;;;15.22;100.00
72959;BME280;60008;50.826;6.896;2023-08-06T03:47:55;99810.78;;;15.18;100.00
72959;BME280;60008;50.826;6.896;2023-08-06T03:50:46;99810.84;;;15.05;100.00
72959;BME280;60008;50.826;6.896;2023-08-06T03:53:38;99803.41;;;15.13;100.00
72959;BME280;60008;50.826;6.896;2023-08-06T03:56:29;99805.41;;;15.24;100.00
72959;BME280;60008;50.826;6.896;2023-08-06T03:59:14;99806.41;;;15.30;100.00
72959;BME280;60008;50.826;6.896;2023-08-06T04:02:12;99800.59;;;15.39;100.00
72959;BME280;60008;50.826;6.896;2023-08-06T04:05:11;99804.28;;;15.38;100.00
72959;BME280;60008;50.826;6.896;2023-08-06T04:08:03;99802.69;;;15.31;100.00
72959;BME280;60008;50.826;6.896;2023-08-06T04:10:52;99804.75;;;15.29;100.00
72959;BME280;60008;50.826;6.896;2023-08-06T04:13:44;99808.31;;;15.16;100.00
72959;BME280;60008;50.826;6.896;2023-08-06T04:16:36;99811.78;;;15.23;100.00
72959;BME280;60008;50.826;6.896;2023-08-06T04:19:21;99810.16;;;15.16;100.00
72959;BME280;60008;50.826;6.896;2023-08-06T04:22:13;99804.44;;;15.06;100.00
72959;BME280;60008;50.826;6.896;2023-08-06T04:24:59;99801.69;;;15.25;100.00
72959;BME280;60008;50.826;6.896;2023-08-06T04:27:50;99797.28;;;15.06;100.00
72959;BME280;60008;50.826;6.896;2023-08-06T04:30:37;99796.81;;;15.16;100.00
72959;BME280;60008;50.826;6.896;2023-08-06T04:33:28;99795.16;;;15.21;100.00
72959;BME280;60008;50.826;6.896;2023-08-06T04:36:13;99799.66;;;15.21;100.00
72959;BME280;60008;50.826;6.896;2023-08-06T04:39:05;99790.81;;;15.27;100.00
72959;BME280;60008;50.826;6.896;2023-08-06T04:41:50;99797.34;;;15.31;100.00
72959;BME280;60008;50.826;6.896;2023-08-06T04:44:42;99788.91;;;15.34;100.00
72959;BME280;60008;50.826;6.896;2023-08-06T04:47:34;99788.25;;;15.38;100.00
72959;BME280;60008;50.826;6.896;2023-08-06T04:50:20;99787.41;;;15.51;100.00
72959;BME280;60008;50.826;6.896;2023-08-06T04:53:11;99790.25;;;15.56;100.00
72959;BME280;60008;50.826;6.896;2023-08-06T04:55:56;99795.19;;;15.53;100.00
72959;BME280;60008;50.826;6.896;2023-08-06T04:58:48;99792.06;;;15.62;100.00
72959;BME280;60008;50.826;6.896;2023-08-06T05:01:33;99791.81;;;15.32;100.00
72959;BME280;60008;50.826;6.896;2023-08-06T05:04:31;99792.34;;;15.41;100.00
72959;BME280;60008;50.826;6.896;2023-08-06T05:07:31;99796.19;;;15.58;100.00
72959;BME280;60008;50.826;6.896;2023-08-06T05:10:29;99797.41;;;15.62;100.00
72959;BME280;60008;50.826;6.896;2023-08-06T05:13:21;99791.97;;;15.75;100.00
72959;BME280;60008;50.826;6.896;2023-08-06T05:16:13;99798.50;;;15.79;100.00
72959;BME280;60008;50.826;6.896;2023-08-06T05:19:05;99796.59;;;15.86;100.00
72959;BME280;60008;50.826;6.896;2023-08-06T05:21:50;99792.00;;;15.69;100.00
72959;BME280;60008;50.826;6.896;2023-08-06T05:24:42;99793.81;;;15.75;100.00
72959;BME280;60008;50.826;6.896;2023-08-06T05:27:27;99799.13;;;15.81;100.00
72959;BME280;60008;50.826;6.896;2023-08-06T05:30:19;99794.19;;;15.78;100.00
72959;BME280;60008;50.826;6.896;2023-08-06T05:33:04;99808.38;;;15.79;100.00
72959;BME280;60008;50.826;6.896;2023-08-06T05:35:56;99806.06;;;15.82;100.00
72959;BME280;60008;50.826;6.896;2023-08-06T05:38:47;99808.47;;;15.90;100.00
72959;BME280;60008;50.826;6.896;2023-08-06T05:41:32;99817.53;;;15.65;100.00
72959;BME280;60008;50.826;6.896;2023-08-06T05:44:24;99815.44;;;15.67;100.00
72959;BME280;60008;50.826;6.896;2023-08-06T05:47:09;99829.41;;;15.69;100.00
72959;BME280;60008;50.826;6.896;2023-08-06T05:50:01;99823.47;;;15.67;100.00
72959;BME280;60008;50.826;6.896;2023-08-06T05:52:52;99831.06;;;15.63;100.00
72959;BME280;60008;50.826;6.896;2023-08-06T05:55:38;99833.56;;;15.58;100.00
72959;BME280;60008;50.826;6.896;2023-08-06T05:58:30;99825.78;;;15.57;100.00
72959;BME280;60008;50.826;6.896;2023-08-06T06:01:22;99826.56;;;15.64;100.00
72959;BME280;60008;50.826;6.896;2023-08-06T06:04:08;99839.31;;;15.62;100.00
72959;BME280;60008;50.826;6.896;2023-08-06T06:07:06;99837.72;;;15.54;100.00
72959;BME280;60008;50.826;6.896;2023-08-06T06:09:51;99847.19;;;15.50;100.00
72959;BME280;60008;50.826;6.896;2023-08-06T06:12:43;99844.75;;;15.48;100.00
72959;BME280;60008;50.826;6.896;2023-08-06T06:15:35;99851.50;;;15.44;100.00
72959;BME280;60008;50.826;6.896;2023-08-06T06:18:20;99852.28;;;15.58;100.00
72959;BME280;60008;50.826;6.896;2023-08-06T06:21:12;99853.31;;;15.57;100.00
72959;BME280;60008;50.826;6.896;2023-08-06T06:23:57;99853.88;;;15.66;100.00
72959;BME280;60008;50.826;6.896;2023-08-06T06:26:48;99859.50;;;15.44;100.00
72959;BME280;60008;50.826;6.896;2023-08-06T06:29:33;99860.16;;;15.40;100.00
72959;BME280;60008;50.826;6.896;2023-08-06T06:32:25;99852.06;;;15.60;100.00
72959;BME280;60008;50.826;6.896;2023-08-06T06:35:10;99857.50;;;15.40;100.00
72959;BME280;60008;50.826;6.896;2023-08-06T06:38:01;99860.56;;;15.43;100.00
72959;BME280;60008;50.826;6.896;2023-08-06T06:40:54;99857.38;;;15.66;100.00
72959;BME280;60008;50.826;6.896;2023-08-06T06:43:46;99855.09;;;15.70;100.00
72959;BME280;60008;50.826;6.896;2023-08-06T06:46:31;99851.94;;;15.79;100.00
72959;BME280;60008;50.826;6.896;2023-08-06T06:49:23;99856.16;;;15.93;100.00
72959;BME280;60008;50.826;6.896;2023-08-06T06:52:14;99855.06;;;16.26;100.00
72959;BME280;60008;50.826;6.896;2023-08-06T06:54:59;99857.00;;;16.19;100.00
72959;BME280;60008;50.826;6.896;2023-08-06T06:57:51;99853.09;;;16.15;100.00
72959;BME280;60008;50.826;6.896;2023-08-06T07:00:37;99861.34;;;16.13;100.00
72959;BME280;60008;50.826;6.896;2023-08-06T07:03:28;99862.38;;;16.12;100.00
72959;BME280;60008;50.826;6.896;2023-08-06T07:06:26;99860.50;;;16.19;100.00
72959;BME280;60008;50.826;6.896;2023-08-06T07:09:18;99856.94;;;16.00;100.00
72959;BME280;60008;50.826;6.896;2023-08-06T07:12:04;99862.09;;;15.95;100.00
72959;BME280;60008;50.826;6.896;2023-08-06T07:14:55;99866.03;;;16.18;100.00
72959;BME280;60008;50.826;6.896;2023-08-06T07:17:40;99864.94;;;16.25;100.00
72959;BME280;60008;50.826;6.896;2023-08-06T07:20:31;99875.97;;;16.35;100.00
72959;BME280;60008;50.826;6.896;2023-08-06T07:23:25;99874.59;;;16.26;100.00
72959;BME280;60008;50.826;6.896;2023-08-06T07:26:17;99870.56;;;16.17;100.00
72959;BME280;60008;50.826;6.896;2023-08-06T07:29:02;99874.84;;;16.25;100.00
72959;BME280;60008;50.826;6.896;2023-08-06T07:31:54;99876.81;;;16.36;100.00
72959;BME280;60008;50.826;6.896;2023-08-06T07:34:40;99876.09;;;16.22;100.00
72959;BME280;60008;50.826;6.896;2023-08-06T07:37:32;99882.03;;;16.24;100.00
72959;BME280;60008;50.826;6.896;2023-08-06T07:40:17;99885.16;;;16.46;100.00
72959;BME280;60008;50.826;6.896;2023-08-06T07:43:09;99888.84;;;16.20;100.00
72959;BME280;60008;50.826;6.896;2023-08-06T07:45:57;99894.63;;;16.17;100.00
72959;BME280;60008;50.826;6.896;2023-08-06T07:48:49;99883.47;;;16.27;100.00
72959;BME280;60008;50.826;6.896;2023-08-06T07:51:34;99893.66;;;16.36;100.00
72959;BME280;60008;50.826;6.896;2023-08-06T07:54:26;99890.88;;;16.49;100.00
72959;BME280;60008;50.826;6.896;2023-08-06T07:57:11;99890.78;;;16.62;100.00
72959;BME280;60008;50.826;6.896;2023-08-06T08:00:03;99889.13;;;16.61;100.00
72959;BME280;60008;50.826;6.896;2023-08-06T08:02:48;99887.75;;;16.77;100.00
72959;BME280;60008;50.826;6.896;2023-08-06T08:05:40;99890.22;;;17.15;100.00
72959;BME280;60008;50.826;6.896;2023-08-06T08:08:31;99886.06;;;17.19;100.00
72959;BME280;60008;50.826;6.896;2023-08-06T08:11:22;99873.41;;;17.08;100.00
72959;BME280;60008;50.826;6.896;2023-08-06T08:14:07;99879.38;;;16.92;100.00
72959;BME280;60008;50.826;6.896;2023-08-06T08:16:59;99886.03;;;16.64;100.00
72959;BME280;60008;50.826;6.896;2023-08-06T08:19:44;99890.22;;;16.79;100.00
72959;BME280;60008;50.826;6.896;2023-08-06T08:22:36;99887.25;;;16.87;100.00
72959;BME280;60008;50.826;6.896;2023-08-06T08:25:28;99887.44;;;16.42;100.00
72959;BME280;60008;50.826;6.896;2023-08-06T08:28:19;99901.34;;;16.51;100.00
72959;BME280;60008;50.826;6.896;2023-08-06T08:31:08;99898.28;;;16.47;100.00
72959;BME280;60008;50.826;6.896;2023-08-06T08:34:00;99893.19;;;16.71;100.00
72959;BME280;60008;50.826;6.896;2023-08-06T08:36:52;99894.97;;;16.77;100.00
72959;BME280;60008;50.826;6.896;2023-08-06T08:39:44;99894.44;;;17.04;100.00
72959;BME280;60008;50.826;6.896;2023-08-06T08:42:30;99899.59;;;17.06;100.00
72959;BME280;60008;50.826;6.896;2023-08-06T08:45:22;99895.81;;;16.95;100.00
72959;BME280;60008;50.826;6.896;2023-08-06T08:48:18;99908.47;;;17.06;100.00
72959;BME280;60008;50.826;6.896;2023-08-06T08:51:05;99901.59;;;17.10;100.00
72959;BME280;60008;50.826;6.896;2023-08-06T08:53:57;99893.16;;;17.91;100.00
72959;BME280;60008;50.826;6.896;2023-08-06T08:56:49;99883.66;;;18.18;100.00
72959;BME280;60008;50.826;6.896;2023-08-06T08:59:35;99876.59;;;18.47;100.00
72959;BME280;60008;50.826;6.896;2023-08-06T09:02:28;99879.03;;;18.95;100.00
72959;BME280;60008;50.826;6.896;2023-08-06T09:05:29;99891.84;;;18.23;100.00
72959;BME280;60008;50.826;6.896;2023-08-06T09:08:19;99909.03;;;17.63;100.00
72959;BME280;60008;50.826;6.896;2023-08-06T09:11:13;99905.91;;;17.66;100.00
72959;BME280;60008;50.826;6.896;2023-08-06T09:13:58;99912.94;;;17.78;100.00
72959;BME280;60008;50.826;6.896;2023-08-06T09:16:51;99927.19;;;17.24;100.00
72959;BME280;60008;50.826;6.896;2023-08-06T09:19:36;99923.56;;;17.01;100.00
72959;BME280;60008;50.826;6.896;2023-08-06T09:22:33;99936.06;;;17.25;100.00
72959;BME280;60008;50.826;6.896;2023-08-06T09:25:22;99938.69;;;17.07;100.00
72959;BME280;60008;50.826;6.896;2023-08-06T09:28:18;99942.97;;;17.14;100.00
72959;BME280;60008;50.826;6.896;2023-08-06T09:31:10;99947.81;;;17.06;100.00
72959;BME280;60008;50.826;6.896;2023-08-06T09:33:59;99956.56;;;16.70;100.00
72959;BME280;60008;50.826;6.896;2023-08-06T09:36:52;99965.16;;;16.47;100.00
72959;BME280;60008;50.826;6.896;2023-08-06T09:39:39;99976.56;;;16.36;100.00
72959;BME280;60008;50.826;6.896;2023-08-06T09:42:36;99975.06;;;16.47;100.00
72959;BME280;60008;50.826;6.896;2023-08-06T09:45:22;99981.47;;;16.39;100.00
72959;BME280;60008;50.826;6.896;2023-08-06T09:48:13;99992.88;;;16.28;100.00
72959;BME280;60008;50.826;6.896;2023-08-06T09:50:58;99993.78;;;15.78;100.00
72959;BME280;60008;50.826;6.896;2023-08-06T09:53:51;100001.88;;;15.38;100.00
72959;BME280;60008;50.826;6.896;2023-08-06T09:56:37;100010.91;;;15.44;100.00
72959;BME280;60008;50.826;6.896;2023-08-06T09:59:30;100029.88;;;15.16;100.00
72959;BME280;60008;50.826;6.896;2023-08-06T10:02:16;100040.34;;;14.65;100.00
72959;BME280;60008;50.826;6.896;2023-08-06T10:05:09;100060.06;;;15.10;100.00
72959;BME280;60008;50.826;6.896;2023-08-06T10:08:02;100059.03;;;14.72;100.00
72959;BME280;60008;50.826;6.896;2023-08-06T10:10:54;100076.06;;;14.64;100.00
72959;BME280;60008;50.826;6.896;2023-08-06T10:13:40;100068.25;;;14.76;100.00
72959;BME280;60008;50.826;6.896;2023-08-06T10:16:32;100074.44;;;14.83;100.00
72959;BME280;60008;50.826;6.896;2023-08-06T10:19:18;100079.53;;;14.58;100.00
72959;BME280;60008;50.826;6.896;2023-08-06T10:22:19;100086.25;;;14.35;100.00
72959;BME280;60008;50.826;6.896;2023-08-06T10:25:05;100089.13;;;14.46;100.00
72959;BME280;60008;50.826;6.896;2023-08-06T10:27:56;100098.34;;;14.44;100.00
72959;BME280;60008;50.826;6.896;2023-08-06T10:30:45;100098.53;;;14.36;100.00
72959;BME280;60008;50.826;6.896;2023-08-06T10:33:47;100104.09;;;14.34;100.00
72959;BME280;60008;50.826;6.896;2023-08-06T10:36:38;100106.25;;;14.17;100.00
72959;BME280;60008;50.826;6.896;2023-08-06T10:39:23;100119.81;;;14.29;100.00
72959;BME280;60008;50.826;6.896;2023-08-06T10:42:22;100124.38;;;14.35;100.00
72959;BME280;60008;50.826;6.896;2023-08-06T10:45:15;100111.50;;;14.45;100.00
72959;BME280;60008;50.826;6.896;2023-08-06T10:48:07;100108.63;;;14.40;100.00
72959;BME280;60008;50.826;6.896;2023-08-06T10:51:00;100131.75;;;14.33;100.00
72959;BME280;60008;50.826;6.896;2023-08-06T10:53:47;100119.13;;;14.61;100.00
72959;BME280;60008;50.826;6.896;2023-08-06T10:56:41;100129.34;;;14.51;100.00
72959;BME280;60008;50.826;6.896;2023-08-06T10:59:33;100124.66;;;14.60;100.00
72959;BME280;60008;50.826;6.896;2023-08-06T11:02:18;100126.88;;;14.50;100.00
72959;BME280;60008;50.826;6.896;2023-08-06T11:05:10;100143.09;;;14.48;100.00
72959;BME280;60008;50.826;6.896;2023-08-06T11:08:02;100137.00;;;14.67;100.00
72959;BME280;60008;50.826;6.896;2023-08-06T11:10:47;100131.03;;;14.65;100.00
72959;BME280;60008;50.826;6.896;2023-08-06T11:13:48;100136.16;;;14.60;100.00
72959;BME280;60008;50.826;6.896;2023-08-06T11:16:40;100128.44;;;14.92;100.00
72959;BME280;60008;50.826;6.896;2023-08-06T11:19:25;100136.19;;;14.80;100.00
72959;BME280;60008;50.826;6.896;2023-08-06T11:22:17;100137.22;;;14.85;100.00
72959;BME280;60008;50.826;6.896;2023-08-06T11:25:03;100140.94;;;14.91;100.00
72959;BME280;60008;50.826;6.896;2023-08-06T11:27:56;100144.63;;;15.03;100.00
72959;BME280;60008;50.826;6.896;2023-08-06T11:30:41;100139.72;;;14.94;100.00
72959;BME280;60008;50.826;6.896;2023-08-06T11:33:33;100141.13;;;14.89;100.00
72959;BME280;60008;50.826;6.896;2023-08-06T11:36:31;100145.47;;;15.04;100.00
72959;BME280;60008;50.826;6.896;2023-08-06T11:39:24;100153.09;;;15.13;100.00
72959;BME280;60008;50.826;6.896;2023-08-06T11:42:15;100153.03;;;15.00;100.00
72959;BME280;60008;50.826;6.896;2023-08-06T11:45:02;100166.19;;;14.95;100.00
72959;BME280;60008;50.826;6.896;2023-08-06T11:47:54;100171.94;;;14.99;100.00
72959;BME280;60008;50.826;6.896;2023-08-06T11:50:46;100167.78;;;14.76;100.00
72959;BME280;60008;50.826;6.896;2023-08-06T11:53:31;100179.13;;;14.92;100.00
72959;BME280;60008;50.826;6.896;2023-08-06T11:56:22;100176.03;;;14.88;100.00
72959;BME280;60008;50.826;6.896;2023-08-06T11:59:08;100185.03;;;14.87;100.00
72959;BME280;60008;50.826;6.896;2023-08-06T12:02:03;100187.78;;;15.20;100.00
72959;BME280;60008;50.826;6.896;2023-08-06T12:05:04;100186.53;;;15.09;100.00
72959;BME280;60008;50.826;6.896;2023-08-06T12:08:02;100187.56;;;15.15;100.00
72959;BME280;60008;50.826;6.896;2023-08-06T12:10:47;100192.72;;;15.29;100.00
72959;BME280;60008;50.826;6.896;2023-08-06T12:13:39;100182.03;;;15.23;100.00
72959;BME280;60008;50.826;6.896;2023-08-06T12:16:24;100184.09;;;15.34;100.00
72959;BME280;60008;50.826;6.896;2023-08-06T12:19:15;100180.44;;;15.48;100.00
72959;BME280;60008;50.826;6.896;2023-08-06T12:22:00;100175.06;;;15.22;100.00
72959;BME280;60008;50.826;6.896;2023-08-06T12:24:51;100180.38;;;15.41;100.00
72959;BME280;60008;50.826;6.896;2023-08-06T12:27:39;100186.78;;;15.47;100.00
72959;BME280;60008;50.826;6.896;2023-08-06T12:30:31;100183.91;;;15.55;100.00
72959;BME280;60008;50.826;6.896;2023-08-06T12:33:16;100181.03;;;15.63;100.00
72959;BME280;60008;50.826;6.896;2023-08-06T12:36:08;100195.19;;;15.37;100.00
72959;BME280;60008;50.826;6.896;2023-08-06T12:38:53;100188.25;;;15.56;100.00
72959;BME280;60008;50.826;6.896;2023-08-06T12:41:46;100185.13;;;15.66;100.00
72959;BME280;60008;50.826;6.896;2023-08-06T12:44:31;100185.97;;;15.66;100.00
72959;BME280;60008;50.826;6.896;2023-08-06T12:47:23;100189.25;;;15.75;100.00
72959;BME280;60008;50.826;6.896;2023-08-06T12:50:09;100193.75;;;15.74;100.00
72959;BME280;60008;50.826;6.896;2023-08-06T12:53:00;100199.53;;;15.65;100.00
72959;BME280;60008;50.826;6.896;2023-08-06T12:55:45;100205.28;;;15.62;100.00
72959;BME280;60008;50.826;6.896;2023-08-06T12:58:37;100215.97;;;15.48;100.00
72959;BME280;60008;50.826;6.896;2023-08-06T13:01:24;100206.72;;;15.58;100.00
72959;BME280;60008;50.826;6.896;2023-08-06T13:04:16;100225.00;;;15.80;100.00
72959;BME280;60008;50.826;6.896;2023-08-06T13:07:08;100218.84;;;15.60;100.00
72959;BME280;60008;50.826;6.896;2023-08-06T13:10:00;100224.19;;;15.47;100.00
72959;BME280;60008;50.826;6.896;2023-08-06T13:12:51;100241.66;;;15.56;100.00
72959;BME280;60008;50.826;6.896;2023-08-06T13:15:42;100246.59;;;15.46;100.00
72959;BME280;60008;50.826;6.896;2023-08-06T13:18:27;100250.91;;;15.54;100.00
72959;BME280;60008;50.826;6.896;2023-08-06T13:21:20;100246.19;;;15.62;100.00
72959;BME280;60008;50.826;6.896;2023-08-06T13:24:05;100245.78;;;15.65;100.00
72959;BME280;60008;50.826;6.896;2023-08-06T13:26:57;100252.56;;;15.61;100.00
72959;BME280;60008;50.826;6.896;2023-08-06T13:29:43;100253.38;;;15.48;100.00
72959;BME280;60008;50.826;6.896;2023-08-06T13:32:35;100268.75;;;15.40;100.00
72959;BME280;60008;50.826;6.896;2023-08-06T13:35:21;100265.91;;;15.48;100.00
72959;BME280;60008;50.826;6.896;2023-08-06T13:38:12;100258.06;;;15.46;100.00
72959;BME280;60008;50.826;6.896;2023-08-06T13:40:57;100266.09;;;15.66;100.00
72959;BME280;60008;50.826;6.896;2023-08-06T13:43:49;100272.28;;;15.54;100.00
72959;BME280;60008;50.826;6.896;2023-08-06T13:46:34;100275.97;;;15.53;100.00
72959;BME280;60008;50.826;6.896;2023-08-06T13:49:26;100268.19;;;15.71;100.00
72959;BME280;60008;50.826;6.896;2023-08-06T13:52:11;100265.72;;;15.69;100.00
72959;BME280;60008;50.826;6.896;2023-08-06T13:55:06;100263.84;;;15.83;100.00
72959;BME280;60008;50.826;6.896;2023-08-06T13:57:52;100265.50;;;15.77;100.00
72959;BME280;60008;50.826;6.896;2023-08-06T14:00:44;100260.16;;;15.84;100.00
72959;BME280;60008;50.826;6.896;2023-08-06T14:03:28;100269.22;;;15.89;100.00
72959;BME280;60008;50.826;6.896;2023-08-06T14:06:26;100279.28;;;15.68;100.00
72959;BME280;60008;50.826;6.896;2023-08-06T14:09:12;100279.88;;;15.83;100.00
72959;BME280;60008;50.826;6.896;2023-08-06T14:12:06;100274.53;;;15.76;100.00
72959;BME280;60008;50.826;6.896;2023-08-06T14:14:51;100283.41;;;15.70;100.00
72959;BME280;60008;50.826;6.896;2023-08-06T14:17:42;100283.38;;;15.83;100.00
72959;BME280;60008;50.826;6.896;2023-08-06T14:20:28;100291.78;;;15.61;100.00
72959;BME280;60008;50.826;6.896;2023-08-06T14:23:19;100282.34;;;15.65;100.00
72959;BME280;60008;50.826;6.896;2023-08-06T14:26:04;100288.31;;;15.93;100.00
72959;BME280;60008;50.826;6.896;2023-08-06T14:28:55;100291.00;;;15.86;100.00
72959;BME280;60008;50.826;6.896;2023-08-06T14:31:41;100290.78;;;15.94;100.00
72959;BME280;60008;50.826;6.896;2023-08-06T14:34:32;100297.97;;;15.87;100.00
72959;BME280;60008;50.826;6.896;2023-08-06T14:37:17;100297.97;;;15.87;100.00
72959;BME280;60008;50.826;6.896;2023-08-06T14:40:10;100297.38;;;15.92;100.00
72959;BME280;60008;50.826;6.896;2023-08-06T14:42:55;100289.31;;;16.12;100.00
72959;BME280;60008;50.826;6.896;2023-08-06T14:45:47;100287.25;;;16.33;100.00
72959;BME280;60008;50.826;6.896;2023-08-06T14:48:32;100280.44;;;16.57;100.00